RSD429 URWW-UWKD
Flight info
| Callsign | RSD429 |
|---|---|
| Flight time | 1h 35m |
| Altitude | 37000 |
| Route | RODUN R807 UROBO P135 DAFOS T789 SONUM |
| Aircraft | A320/M-SDE3FGHIRWY/LB1 |
Departure
| Time | 2026-05-07 18:11 |
|---|---|
| Airport | Volgograd International Airport (URWW) |
Arrival
| Time | 2026-05-07 19:46 |
|---|---|
| Airport | Kazan International Airport (UWKD) |
| Time | Latitude | Longitude | Altitude | Speed | Heading |
|---|---|---|---|---|---|
| 2026-05-07 17:54 | 48.79052 | 44.35391 | 486 ft | 0 kts | 340° |
| 2026-05-07 18:02 | 48.79039 | 44.35398 | 477 ft | 3 kts | 336° |
| 2026-05-07 18:03 | 48.79021 | 44.35412 | 480 ft | 3 kts | 324° |
| 2026-05-07 18:03 | 48.79008 | 44.35431 | 485 ft | 3 kts | 296° |
| 2026-05-07 18:03 | 48.79004 | 44.35455 | 476 ft | 2 kts | 250° |
| 2026-05-07 18:03 | 48.79004 | 44.35457 | 476 ft | 0 kts | 249° |
| 2026-05-07 18:05 | 48.79003 | 44.35453 | 476 ft | 3 kts | 249° |
| 2026-05-07 18:05 | 48.78989 | 44.35395 | 481 ft | 6 kts | 249° |
| 2026-05-07 18:06 | 48.78970 | 44.35317 | 484 ft | 11 kts | 249° |
| 2026-05-07 18:06 | 48.78951 | 44.35239 | 482 ft | 11 kts | 249° |
| 2026-05-07 18:06 | 48.78924 | 44.35134 | 479 ft | 10 kts | 246° |
| 2026-05-07 18:06 | 48.78869 | 44.35114 | 481 ft | 8 kts | 160° |
| 2026-05-07 18:07 | 48.78800 | 44.35153 | 483 ft | 11 kts | 161° |
| 2026-05-07 18:07 | 48.78742 | 44.35182 | 481 ft | 8 kts | 161° |
| 2026-05-07 18:07 | 48.78696 | 44.35205 | 484 ft | 7 kts | 161° |
| 2026-05-07 18:07 | 48.78691 | 44.35207 | 486 ft | 0 kts | 161° |
| 2026-05-07 18:08 | 48.78690 | 44.35208 | 486 ft | 2 kts | 161° |
| 2026-05-07 18:08 | 48.78637 | 44.35234 | 481 ft | 9 kts | 161° |
| 2026-05-07 18:09 | 48.78581 | 44.35260 | 486 ft | 8 kts | 178° |
| 2026-05-07 18:09 | 48.78548 | 44.35208 | 481 ft | 6 kts | 244° |
| 2026-05-07 18:09 | 48.78548 | 44.35207 | 481 ft | 0 kts | 245° |
| 2026-05-07 18:10 | 48.78548 | 44.35205 | 481 ft | 0 kts | 245° |
| 2026-05-07 18:10 | 48.78504 | 44.35067 | 481 ft | 49 kts | 244° |
| 2026-05-07 18:10 | 48.78244 | 44.34246 | 476 ft | 120 kts | 244° |
| 2026-05-07 18:11 | 48.77809 | 44.32852 | 587 ft | 160 kts | 246° |
| 2026-05-07 18:11 | 48.77354 | 44.31314 | 1331 ft | 159 kts | 246° |
| 2026-05-07 18:11 | 48.76875 | 44.29809 | 2085 ft | 158 kts | 247° |
| 2026-05-07 18:11 | 48.76387 | 44.28302 | 2675 ft | 167 kts | 248° |
| 2026-05-07 18:12 | 48.75845 | 44.26617 | 3009 ft | 190 kts | 247° |
| 2026-05-07 18:12 | 48.75231 | 44.24698 | 3391 ft | 214 kts | 247° |
| 2026-05-07 18:12 | 48.74614 | 44.22515 | 3830 ft | 236 kts | 261° |
| 2026-05-07 18:12 | 48.74785 | 44.19995 | 4287 ft | 253 kts | 298° |
| 2026-05-07 18:13 | 48.76004 | 44.18082 | 5002 ft | 260 kts | 335° |
| 2026-05-07 18:13 | 48.77769 | 44.17634 | 5894 ft | 263 kts | 9° |
| 2026-05-07 18:13 | 48.79433 | 44.18777 | 6840 ft | 267 kts | 35° |
| 2026-05-07 18:13 | 48.80828 | 44.20652 | 7801 ft | 269 kts | 43° |
| 2026-05-07 18:14 | 48.82167 | 44.22658 | 8747 ft | 272 kts | 42° |
| 2026-05-07 18:14 | 48.83517 | 44.24684 | 9669 ft | 275 kts | 43° |
| 2026-05-07 18:14 | 48.84895 | 44.26743 | 10341 ft | 287 kts | 41° |
| 2026-05-07 18:14 | 48.86491 | 44.28745 | 10630 ft | 309 kts | 35° |
| 2026-05-07 18:15 | 48.88298 | 44.30663 | 11128 ft | 322 kts | 32° |
| 2026-05-07 18:15 | 48.90187 | 44.32536 | 11886 ft | 326 kts | 32° |
| 2026-05-07 18:15 | 48.92104 | 44.34415 | 12699 ft | 330 kts | 32° |
| 2026-05-07 18:15 | 48.94033 | 44.36330 | 13510 ft | 333 kts | 32° |
| 2026-05-07 18:16 | 48.95969 | 44.38298 | 14246 ft | 336 kts | 33° |
| 2026-05-07 18:16 | 48.97912 | 44.40308 | 14905 ft | 340 kts | 33° |
| 2026-05-07 18:16 | 48.99873 | 44.42358 | 15570 ft | 344 kts | 33° |
| 2026-05-07 18:16 | 49.01852 | 44.44438 | 16225 ft | 348 kts | 34° |
| 2026-05-07 18:17 | 49.03853 | 44.46547 | 16873 ft | 352 kts | 33° |
| 2026-05-07 18:17 | 49.05874 | 44.48677 | 17541 ft | 355 kts | 33° |
| 2026-05-07 18:17 | 49.07915 | 44.50829 | 18198 ft | 359 kts | 33° |
| 2026-05-07 18:17 | 49.09978 | 44.53003 | 18772 ft | 362 kts | 33° |
| 2026-05-07 18:18 | 49.12059 | 44.55200 | 19351 ft | 365 kts | 34° |
| 2026-05-07 18:18 | 49.14156 | 44.57414 | 19938 ft | 368 kts | 34° |
| 2026-05-07 18:18 | 49.16275 | 44.59650 | 20518 ft | 371 kts | 34° |
| 2026-05-07 18:18 | 49.18410 | 44.61900 | 21086 ft | 375 kts | 34° |
| 2026-05-07 18:19 | 49.20570 | 44.64177 | 21636 ft | 379 kts | 34° |
| 2026-05-07 18:19 | 49.22747 | 44.66478 | 22199 ft | 382 kts | 34° |
| 2026-05-07 18:19 | 49.24941 | 44.68804 | 22750 ft | 385 kts | 34° |
| 2026-05-07 18:19 | 49.27150 | 44.71155 | 23293 ft | 388 kts | 34° |
| 2026-05-07 18:20 | 49.29378 | 44.73532 | 23789 ft | 392 kts | 34° |
| 2026-05-07 18:20 | 49.31622 | 44.75925 | 24208 ft | 395 kts | 34° |
| 2026-05-07 18:20 | 49.33886 | 44.78334 | 24626 ft | 398 kts | 34° |
| 2026-05-07 18:20 | 49.36167 | 44.80760 | 25037 ft | 400 kts | 34° |
| 2026-05-07 18:21 | 49.38464 | 44.83206 | 25438 ft | 403 kts | 34° |
| 2026-05-07 18:21 | 49.40773 | 44.85669 | 25827 ft | 406 kts | 34° |
| 2026-05-07 18:21 | 49.43096 | 44.88155 | 26210 ft | 409 kts | 34° |
| 2026-05-07 18:21 | 49.45437 | 44.90662 | 26594 ft | 411 kts | 34° |
| 2026-05-07 18:22 | 49.47788 | 44.93188 | 26967 ft | 414 kts | 34° |
| 2026-05-07 18:22 | 49.49347 | 44.94864 | 27212 ft | 416 kts | 34° |
| 2026-05-07 18:22 | 49.52541 | 44.98299 | 27708 ft | 419 kts | 34° |
| 2026-05-07 18:22 | 49.54938 | 45.00877 | 28058 ft | 422 kts | 34° |
| 2026-05-07 18:23 | 49.57352 | 45.03475 | 28416 ft | 424 kts | 34° |
| 2026-05-07 18:23 | 49.59778 | 45.06089 | 28765 ft | 427 kts | 35° |
| 2026-05-07 18:23 | 49.62218 | 45.08724 | 29091 ft | 429 kts | 35° |
| 2026-05-07 18:23 | 49.64672 | 45.11370 | 29427 ft | 431 kts | 33° |
| 2026-05-07 18:24 | 49.67290 | 45.13656 | 29749 ft | 434 kts | 25° |
| 2026-05-07 18:24 | 49.70121 | 45.15281 | 30047 ft | 436 kts | 16° |
| 2026-05-07 18:24 | 49.73052 | 45.16545 | 30289 ft | 438 kts | 16° |
| 2026-05-07 18:24 | 49.75990 | 45.17823 | 30534 ft | 440 kts | 16° |
| 2026-05-07 18:25 | 49.78944 | 45.19116 | 30769 ft | 442 kts | 16° |
| 2026-05-07 18:25 | 49.81903 | 45.20414 | 31020 ft | 443 kts | 16° |
| 2026-05-07 18:25 | 49.84867 | 45.21717 | 31292 ft | 443 kts | 16° |
| 2026-05-07 18:25 | 49.87825 | 45.23022 | 31623 ft | 441 kts | 16° |
| 2026-05-07 18:26 | 49.90775 | 45.24326 | 31947 ft | 441 kts | 16° |
| 2026-05-07 18:26 | 49.93722 | 45.25630 | 32259 ft | 440 kts | 16° |
| 2026-05-07 18:26 | 49.96661 | 45.26931 | 32587 ft | 439 kts | 16° |
| 2026-05-07 18:26 | 49.99597 | 45.28232 | 32912 ft | 438 kts | 16° |
| 2026-05-07 18:27 | 50.02533 | 45.29511 | 33246 ft | 437 kts | 15° |
| 2026-05-07 18:27 | 50.05482 | 45.30649 | 33572 ft | 437 kts | 13° |
| 2026-05-07 18:27 | 50.08382 | 45.32010 | 33893 ft | 435 kts | 25° |
| 2026-05-07 18:27 | 50.10918 | 45.34559 | 34168 ft | 435 kts | 42° |
| 2026-05-07 18:28 | 50.12852 | 45.38180 | 34406 ft | 437 kts | 58° |
| 2026-05-07 18:28 | 50.14353 | 45.42316 | 34612 ft | 439 kts | 60° |
| 2026-05-07 18:28 | 50.15806 | 45.46510 | 34809 ft | 441 kts | 60° |
| 2026-05-07 18:28 | 50.17259 | 45.50725 | 35037 ft | 441 kts | 60° |
| 2026-05-07 18:29 | 50.18712 | 45.54945 | 35253 ft | 442 kts | 60° |
| 2026-05-07 18:29 | 50.20165 | 45.59172 | 35469 ft | 442 kts | 60° |
| 2026-05-07 18:29 | 50.21628 | 45.63394 | 35682 ft | 442 kts | 58° |
| 2026-05-07 18:29 | 50.23479 | 45.67195 | 35888 ft | 440 kts | 43° |
| 2026-05-07 18:30 | 50.25868 | 45.70050 | 36080 ft | 438 kts | 27° |
| 2026-05-07 18:30 | 50.28687 | 45.71809 | 36270 ft | 437 kts | 12° |
| 2026-05-07 18:30 | 50.31700 | 45.72301 | 36439 ft | 437 kts | 356° |
| 2026-05-07 18:30 | 50.34699 | 45.71555 | 36596 ft | 438 kts | 347° |
| 2026-05-07 18:31 | 50.37674 | 45.70474 | 36756 ft | 439 kts | 347° |
| 2026-05-07 18:31 | 50.40649 | 45.69388 | 36917 ft | 440 kts | 347° |
| 2026-05-07 18:31 | 50.43627 | 45.68300 | 36960 ft | 439 kts | 347° |
| 2026-05-07 18:32 | 50.49577 | 45.66139 | 36958 ft | 439 kts | 347° |
| 2026-05-07 18:32 | 50.55530 | 45.63984 | 36958 ft | 439 kts | 347° |
| 2026-05-07 18:33 | 50.61479 | 45.61823 | 36959 ft | 439 kts | 347° |
| 2026-05-07 18:33 | 50.67414 | 45.59649 | 36966 ft | 438 kts | 347° |
| 2026-05-07 18:34 | 50.73344 | 45.57464 | 36966 ft | 438 kts | 347° |
| 2026-05-07 18:34 | 50.79370 | 45.56376 | 36963 ft | 437 kts | 3° |
| 2026-05-07 18:35 | 50.85353 | 45.58044 | 36958 ft | 437 kts | 12° |
| 2026-05-07 18:35 | 50.91288 | 45.60172 | 36961 ft | 438 kts | 12° |
| 2026-05-07 18:36 | 50.97230 | 45.62316 | 36951 ft | 438 kts | 12° |
| 2026-05-07 18:36 | 51.03143 | 45.64629 | 36962 ft | 438 kts | 19° |
| 2026-05-07 18:37 | 51.08704 | 45.68592 | 36956 ft | 438 kts | 24° |
| 2026-05-07 18:37 | 51.14224 | 45.72724 | 36952 ft | 438 kts | 24° |
| 2026-05-07 18:38 | 51.19743 | 45.76872 | 36948 ft | 439 kts | 24° |
| 2026-05-07 18:38 | 51.25262 | 45.81033 | 36953 ft | 439 kts | 25° |
| 2026-05-07 18:39 | 51.30790 | 45.85211 | 36954 ft | 440 kts | 25° |
| 2026-05-07 18:39 | 51.36323 | 45.89397 | 36951 ft | 440 kts | 25° |
| 2026-05-07 18:40 | 51.41864 | 45.93595 | 36958 ft | 440 kts | 25° |
| 2026-05-07 18:40 | 51.47398 | 45.97814 | 36956 ft | 441 kts | 25° |
| 2026-05-07 18:41 | 51.52935 | 46.02050 | 36951 ft | 441 kts | 25° |
| 2026-05-07 18:41 | 51.58461 | 46.06317 | 36954 ft | 441 kts | 25° |
| 2026-05-07 18:42 | 51.63929 | 46.10790 | 36957 ft | 441 kts | 26° |
| 2026-05-07 18:42 | 51.69376 | 46.15348 | 36956 ft | 441 kts | 26° |
| 2026-05-07 18:43 | 51.74820 | 46.19888 | 36956 ft | 440 kts | 26° |
| 2026-05-07 18:43 | 51.80273 | 46.24405 | 36953 ft | 440 kts | 26° |
| 2026-05-07 18:44 | 51.85731 | 46.28926 | 36954 ft | 441 kts | 26° |
| 2026-05-07 18:44 | 51.91187 | 46.33467 | 36954 ft | 441 kts | 26° |
| 2026-05-07 18:45 | 51.96642 | 46.38030 | 36951 ft | 442 kts | 26° |
| 2026-05-07 18:45 | 52.02097 | 46.42615 | 36951 ft | 442 kts | 26° |
| 2026-05-07 18:46 | 52.07557 | 46.47203 | 36960 ft | 442 kts | 26° |
| 2026-05-07 18:46 | 52.13018 | 46.51803 | 36960 ft | 442 kts | 26° |
| 2026-05-07 18:47 | 52.18479 | 46.56413 | 36959 ft | 442 kts | 26° |
| 2026-05-07 18:47 | 52.23941 | 46.61035 | 36961 ft | 442 kts | 26° |
| 2026-05-07 18:48 | 52.29402 | 46.65673 | 36972 ft | 442 kts | 27° |
| 2026-05-07 18:48 | 52.34855 | 46.70326 | 36971 ft | 442 kts | 27° |
| 2026-05-07 18:49 | 52.39390 | 46.74205 | 36966 ft | 442 kts | 27° |
| 2026-05-07 18:49 | 52.44880 | 46.78906 | 36970 ft | 442 kts | 27° |
| 2026-05-07 18:50 | 52.50293 | 46.83560 | 36971 ft | 442 kts | 27° |
| 2026-05-07 18:50 | 52.55749 | 46.88256 | 36971 ft | 443 kts | 27° |
| 2026-05-07 18:51 | 52.61204 | 46.92973 | 36974 ft | 443 kts | 27° |
| 2026-05-07 18:51 | 52.66659 | 46.97694 | 36974 ft | 443 kts | 27° |
| 2026-05-07 18:52 | 52.72117 | 47.02426 | 36975 ft | 443 kts | 27° |
| 2026-05-07 18:52 | 52.77569 | 47.07182 | 36969 ft | 443 kts | 27° |
| 2026-05-07 18:53 | 52.83023 | 47.11956 | 36971 ft | 444 kts | 27° |
| 2026-05-07 18:53 | 52.88481 | 47.16736 | 36969 ft | 444 kts | 27° |
| 2026-05-07 18:54 | 52.93937 | 47.21531 | 36976 ft | 444 kts | 27° |
| 2026-05-07 18:54 | 52.99388 | 47.26338 | 36978 ft | 444 kts | 27° |
| 2026-05-07 18:55 | 53.04840 | 47.31148 | 36975 ft | 444 kts | 27° |
| 2026-05-07 18:55 | 53.10255 | 47.35947 | 36973 ft | 444 kts | 27° |
| 2026-05-07 18:56 | 53.15739 | 47.40835 | 36978 ft | 444 kts | 27° |
| 2026-05-07 18:56 | 53.21185 | 47.45700 | 36978 ft | 444 kts | 27° |
| 2026-05-07 18:57 | 53.26636 | 47.50565 | 36976 ft | 444 kts | 27° |
| 2026-05-07 18:57 | 53.32080 | 47.55449 | 36975 ft | 444 kts | 27° |
| 2026-05-07 18:58 | 53.37527 | 47.60345 | 36974 ft | 444 kts | 27° |
| 2026-05-07 18:58 | 53.42967 | 47.65261 | 36977 ft | 444 kts | 28° |
| 2026-05-07 18:59 | 53.48441 | 47.70064 | 36976 ft | 444 kts | 22° |
| 2026-05-07 18:59 | 53.54144 | 47.73831 | 36974 ft | 443 kts | 21° |
| 2026-05-07 19:00 | 53.59886 | 47.77614 | 36977 ft | 443 kts | 21° |
| 2026-05-07 19:00 | 53.65662 | 47.81447 | 36980 ft | 443 kts | 21° |
| 2026-05-07 19:01 | 53.71451 | 47.84976 | 36983 ft | 442 kts | 13° |
| 2026-05-07 19:01 | 53.77434 | 47.87405 | 36980 ft | 442 kts | 13° |
| 2026-05-07 19:02 | 53.83339 | 47.90056 | 36974 ft | 442 kts | 20° |
| 2026-05-07 19:02 | 53.89021 | 47.94251 | 36959 ft | 443 kts | 23° |
| 2026-05-07 19:03 | 53.94613 | 47.98470 | 36961 ft | 443 kts | 23° |
| 2026-05-07 19:03 | 54.00248 | 48.02715 | 36965 ft | 443 kts | 23° |
| 2026-05-07 19:04 | 54.05883 | 48.06976 | 36971 ft | 443 kts | 23° |
| 2026-05-07 19:04 | 54.11518 | 48.11258 | 36969 ft | 444 kts | 23° |
| 2026-05-07 19:04 | 54.14331 | 48.13402 | 36661 ft | 442 kts | 24° |
| 2026-05-07 19:05 | 54.17137 | 48.15541 | 35945 ft | 441 kts | 24° |
| 2026-05-07 19:05 | 54.19936 | 48.17674 | 35259 ft | 440 kts | 24° |
| 2026-05-07 19:05 | 54.22723 | 48.19802 | 34610 ft | 438 kts | 24° |
| 2026-05-07 19:05 | 54.25495 | 48.21929 | 33937 ft | 436 kts | 24° |
| 2026-05-07 19:06 | 54.28172 | 48.24325 | 33136 ft | 434 kts | 29° |
| 2026-05-07 19:06 | 54.33431 | 48.29373 | 31892 ft | 431 kts | 29° |
| 2026-05-07 19:06 | 54.36048 | 48.31887 | 31633 ft | 431 kts | 29° |
| 2026-05-07 19:07 | 54.38652 | 48.34390 | 31173 ft | 427 kts | 29° |
| 2026-05-07 19:07 | 54.41234 | 48.36870 | 30627 ft | 424 kts | 28° |
| 2026-05-07 19:07 | 54.43802 | 48.39338 | 30132 ft | 422 kts | 28° |
| 2026-05-07 19:07 | 54.46354 | 48.41796 | 29578 ft | 419 kts | 28° |
| 2026-05-07 19:08 | 54.48887 | 48.44239 | 29011 ft | 416 kts | 29° |
| 2026-05-07 19:08 | 54.51400 | 48.46661 | 28458 ft | 413 kts | 29° |
| 2026-05-07 19:08 | 54.53894 | 48.49069 | 27895 ft | 409 kts | 29° |
| 2026-05-07 19:08 | 54.56362 | 48.51460 | 27287 ft | 406 kts | 28° |
| 2026-05-07 19:09 | 54.58813 | 48.53843 | 26652 ft | 404 kts | 29° |
| 2026-05-07 19:09 | 54.61251 | 48.56216 | 26064 ft | 401 kts | 29° |
| 2026-05-07 19:09 | 54.63674 | 48.58580 | 25499 ft | 399 kts | 29° |
| 2026-05-07 19:09 | 54.66079 | 48.60929 | 24953 ft | 396 kts | 29° |
| 2026-05-07 19:10 | 54.68469 | 48.63267 | 24419 ft | 394 kts | 29° |
| 2026-05-07 19:10 | 54.70843 | 48.65596 | 23904 ft | 391 kts | 29° |
| 2026-05-07 19:10 | 54.73204 | 48.67912 | 23382 ft | 389 kts | 29° |
| 2026-05-07 19:10 | 54.75553 | 48.70215 | 23005 ft | 387 kts | 29° |
| 2026-05-07 19:11 | 54.77899 | 48.72515 | 22958 ft | 388 kts | 29° |
| 2026-05-07 19:11 | 54.80250 | 48.74822 | 22966 ft | 389 kts | 29° |
| 2026-05-07 19:11 | 54.82601 | 48.77136 | 22967 ft | 389 kts | 29° |
| 2026-05-07 19:11 | 54.84951 | 48.79458 | 22967 ft | 389 kts | 29° |
| 2026-05-07 19:12 | 54.87300 | 48.81786 | 22969 ft | 389 kts | 29° |
| 2026-05-07 19:12 | 54.89649 | 48.84116 | 22969 ft | 389 kts | 29° |
| 2026-05-07 19:12 | 54.91998 | 48.86452 | 22969 ft | 389 kts | 29° |
| 2026-05-07 19:12 | 54.94345 | 48.88786 | 22969 ft | 389 kts | 29° |
| 2026-05-07 19:13 | 54.96696 | 48.91121 | 22969 ft | 389 kts | 29° |
| 2026-05-07 19:13 | 54.99045 | 48.93460 | 22969 ft | 389 kts | 29° |
| 2026-05-07 19:13 | 55.01393 | 48.95807 | 22969 ft | 390 kts | 29° |
| 2026-05-07 19:13 | 55.03747 | 48.98161 | 22969 ft | 390 kts | 29° |
| 2026-05-07 19:14 | 55.06105 | 49.00520 | 22970 ft | 390 kts | 29° |
| 2026-05-07 19:14 | 55.08460 | 49.02882 | 22969 ft | 390 kts | 29° |
| 2026-05-07 19:14 | 55.10808 | 49.05240 | 22966 ft | 385 kts | 29° |
| 2026-05-07 19:14 | 55.13051 | 49.07503 | 22962 ft | 358 kts | 29° |
| 2026-05-07 19:15 | 55.15125 | 49.09597 | 22975 ft | 333 kts | 29° |
| 2026-05-07 19:15 | 55.17078 | 49.11601 | 22968 ft | 318 kts | 33° |
| 2026-05-07 19:15 | 55.18657 | 49.14153 | 22970 ft | 304 kts | 53° |
| 2026-05-07 19:15 | 55.19625 | 49.17377 | 22971 ft | 299 kts | 73° |
| 2026-05-07 19:16 | 55.19903 | 49.20960 | 22971 ft | 299 kts | 94° |
| 2026-05-07 19:16 | 55.19456 | 49.24495 | 22969 ft | 299 kts | 114° |
| 2026-05-07 19:16 | 55.18351 | 49.27552 | 22969 ft | 299 kts | 134° |
| 2026-05-07 19:16 | 55.16726 | 49.29780 | 22969 ft | 298 kts | 154° |
| 2026-05-07 19:17 | 55.14773 | 49.30924 | 22972 ft | 297 kts | 174° |
| 2026-05-07 19:17 | 55.12726 | 49.30858 | 22973 ft | 295 kts | 193° |
| 2026-05-07 19:17 | 55.10802 | 49.29672 | 22975 ft | 294 kts | 206° |
| 2026-05-07 19:17 | 55.08975 | 49.28062 | 22973 ft | 294 kts | 210° |
| 2026-05-07 19:18 | 55.07189 | 49.26326 | 22975 ft | 294 kts | 211° |
| 2026-05-07 19:18 | 55.05415 | 49.24545 | 22975 ft | 294 kts | 211° |
| 2026-05-07 19:18 | 55.03643 | 49.22769 | 22975 ft | 294 kts | 211° |
| 2026-05-07 19:18 | 55.01863 | 49.21007 | 22975 ft | 294 kts | 211° |
| 2026-05-07 19:19 | 55.00103 | 49.19287 | 22973 ft | 294 kts | 210° |
| 2026-05-07 19:19 | 54.98331 | 49.17421 | 22966 ft | 293 kts | 221° |
| 2026-05-07 19:19 | 54.96975 | 49.14823 | 22971 ft | 290 kts | 240° |
| 2026-05-07 19:19 | 54.96186 | 49.11665 | 22970 ft | 289 kts | 258° |
| 2026-05-07 19:20 | 54.96023 | 49.08208 | 22967 ft | 287 kts | 277° |
| 2026-05-07 19:20 | 54.96508 | 49.04849 | 22973 ft | 291 kts | 294° |
| 2026-05-07 19:20 | 54.97698 | 49.01864 | 22976 ft | 314 kts | 317° |
| 2026-05-07 19:20 | 54.99459 | 48.99400 | 22970 ft | 337 kts | 323° |
| 2026-05-07 19:21 | 55.01408 | 48.96913 | 22897 ft | 356 kts | 323° |
| 2026-05-07 19:21 | 55.03449 | 48.94333 | 22062 ft | 368 kts | 323° |
| 2026-05-07 19:21 | 55.05537 | 48.91698 | 21354 ft | 371 kts | 323° |
| 2026-05-07 19:21 | 55.07629 | 48.89063 | 20827 ft | 369 kts | 324° |
| 2026-05-07 19:22 | 55.09703 | 48.86452 | 20340 ft | 366 kts | 324° |
| 2026-05-07 19:22 | 55.11764 | 48.83862 | 19870 ft | 363 kts | 324° |
| 2026-05-07 19:22 | 55.13809 | 48.81291 | 19405 ft | 360 kts | 324° |
| 2026-05-07 19:22 | 55.15837 | 48.78744 | 18952 ft | 358 kts | 324° |
| 2026-05-07 19:23 | 55.17849 | 48.76218 | 18504 ft | 355 kts | 324° |
| 2026-05-07 19:23 | 55.19848 | 48.73712 | 18036 ft | 352 kts | 324° |
| 2026-05-07 19:23 | 55.21830 | 48.71224 | 17545 ft | 349 kts | 324° |
| 2026-05-07 19:23 | 55.23797 | 48.68752 | 17067 ft | 347 kts | 324° |
| 2026-05-07 19:24 | 55.25747 | 48.66296 | 16610 ft | 344 kts | 324° |
| 2026-05-07 19:24 | 55.27681 | 48.63856 | 16149 ft | 341 kts | 324° |
| 2026-05-07 19:24 | 55.29681 | 48.61657 | 15712 ft | 339 kts | 336° |
| 2026-05-07 19:24 | 55.31973 | 48.60794 | 15290 ft | 339 kts | 358° |
| 2026-05-07 19:25 | 55.34297 | 48.61417 | 14847 ft | 339 kts | 13° |
| 2026-05-07 19:25 | 55.36570 | 48.62495 | 14406 ft | 338 kts | 14° |
| 2026-05-07 19:25 | 55.38827 | 48.63598 | 13993 ft | 335 kts | 14° |
| 2026-05-07 19:25 | 55.41037 | 48.64683 | 13571 ft | 333 kts | 14° |
| 2026-05-07 19:26 | 55.43200 | 48.65744 | 13404 ft | 311 kts | 14° |
| 2026-05-07 19:26 | 55.45211 | 48.66738 | 13200 ft | 292 kts | 14° |
| 2026-05-07 19:26 | 55.47145 | 48.67694 | 12821 ft | 287 kts | 14° |
| 2026-05-07 19:26 | 55.49051 | 48.68634 | 12532 ft | 283 kts | 14° |
| 2026-05-07 19:27 | 55.50944 | 48.69565 | 12214 ft | 281 kts | 14° |
| 2026-05-07 19:27 | 55.52822 | 48.70491 | 11953 ft | 280 kts | 14° |
| 2026-05-07 19:27 | 55.54597 | 48.71846 | 11620 ft | 280 kts | 33° |
| 2026-05-07 19:27 | 55.55972 | 48.74280 | 11288 ft | 282 kts | 50° |
| 2026-05-07 19:28 | 55.57166 | 48.77018 | 10951 ft | 281 kts | 50° |
| 2026-05-07 19:28 | 55.58346 | 48.79750 | 10622 ft | 279 kts | 51° |
| 2026-05-07 19:28 | 55.59516 | 48.82472 | 10301 ft | 277 kts | 51° |
| 2026-05-07 19:28 | 55.60680 | 48.85176 | 9988 ft | 275 kts | 51° |
| 2026-05-07 19:29 | 55.61836 | 48.87865 | 9650 ft | 274 kts | 51° |
| 2026-05-07 19:29 | 55.62987 | 48.90529 | 9278 ft | 272 kts | 49° |
| 2026-05-07 19:29 | 55.64434 | 48.92573 | 8911 ft | 266 kts | 21° |
| 2026-05-07 19:29 | 55.66222 | 48.93182 | 8521 ft | 262 kts | 356° |
| 2026-05-07 19:30 | 55.67978 | 48.92429 | 8109 ft | 261 kts | 333° |
| 2026-05-07 19:30 | 55.69408 | 48.90489 | 7700 ft | 261 kts | 310° |
| 2026-05-07 19:30 | 55.70268 | 48.87673 | 7305 ft | 262 kts | 286° |
| 2026-05-07 19:30 | 55.70380 | 48.84475 | 7008 ft | 262 kts | 261° |
| 2026-05-07 19:31 | 55.69718 | 48.81454 | 6977 ft | 268 kts | 237° |
| 2026-05-07 19:31 | 55.68519 | 48.78907 | 6977 ft | 270 kts | 230° |
| 2026-05-07 19:31 | 55.67279 | 48.76403 | 6978 ft | 271 kts | 230° |
| 2026-05-07 19:31 | 55.66049 | 48.73879 | 6972 ft | 271 kts | 231° |
| 2026-05-07 19:32 | 55.64823 | 48.71351 | 6973 ft | 271 kts | 231° |
| 2026-05-07 19:32 | 55.63457 | 48.69070 | 6970 ft | 272 kts | 212° |
| 2026-05-07 19:32 | 55.61675 | 48.67977 | 6972 ft | 274 kts | 185° |
| 2026-05-07 19:32 | 55.59797 | 48.68371 | 6973 ft | 275 kts | 159° |
| 2026-05-07 19:33 | 55.58204 | 48.70179 | 6970 ft | 274 kts | 132° |
| 2026-05-07 19:33 | 55.57214 | 48.73003 | 6972 ft | 272 kts | 106° |
| 2026-05-07 19:33 | 55.56995 | 48.76260 | 6777 ft | 265 kts | 81° |
| 2026-05-07 19:33 | 55.57566 | 48.79299 | 6358 ft | 261 kts | 56° |
| 2026-05-07 19:34 | 55.58714 | 48.81757 | 6014 ft | 258 kts | 46° |
| 2026-05-07 19:34 | 55.59907 | 48.84153 | 5978 ft | 261 kts | 47° |
| 2026-05-07 19:34 | 55.61099 | 48.86592 | 5983 ft | 262 kts | 48° |
| 2026-05-07 19:34 | 55.61886 | 48.88213 | 5985 ft | 262 kts | 48° |
| 2026-05-07 19:35 | 55.63080 | 48.90652 | 5986 ft | 262 kts | 45° |
| 2026-05-07 19:35 | 55.64559 | 48.92457 | 5986 ft | 259 kts | 19° |
| 2026-05-07 19:35 | 55.66322 | 48.92904 | 5988 ft | 258 kts | 353° |
| 2026-05-07 19:35 | 55.68008 | 48.91918 | 5988 ft | 257 kts | 327° |
| 2026-05-07 19:36 | 55.69272 | 48.89704 | 5987 ft | 259 kts | 302° |
| 2026-05-07 19:36 | 55.69867 | 48.86709 | 5984 ft | 261 kts | 276° |
| 2026-05-07 19:36 | 55.69645 | 48.83533 | 5986 ft | 263 kts | 249° |
| 2026-05-07 19:36 | 55.68668 | 48.80788 | 5983 ft | 266 kts | 232° |
| 2026-05-07 19:37 | 55.67474 | 48.78278 | 5980 ft | 266 kts | 230° |
| 2026-05-07 19:37 | 55.66303 | 48.75739 | 5973 ft | 265 kts | 240° |
| 2026-05-07 19:37 | 55.65746 | 48.72684 | 5947 ft | 261 kts | 268° |
| 2026-05-07 19:37 | 55.66051 | 48.69586 | 5595 ft | 256 kts | 296° |
| 2026-05-07 19:38 | 55.67163 | 48.67199 | 5205 ft | 253 kts | 325° |
| 2026-05-07 19:38 | 55.68799 | 48.66114 | 4775 ft | 255 kts | 355° |
| 2026-05-07 19:38 | 55.70539 | 48.66598 | 4313 ft | 257 kts | 22° |
| 2026-05-07 19:38 | 55.71968 | 48.68406 | 4074 ft | 249 kts | 49° |
| 2026-05-07 19:39 | 55.72806 | 48.70991 | 3919 ft | 238 kts | 74° |
| 2026-05-07 19:39 | 55.72973 | 48.73811 | 3795 ft | 225 kts | 97° |
| 2026-05-07 19:39 | 55.72801 | 48.76514 | 3607 ft | 218 kts | 98° |
| 2026-05-07 19:39 | 55.72627 | 48.79172 | 3340 ft | 216 kts | 98° |
| 2026-05-07 19:40 | 55.72455 | 48.81773 | 3210 ft | 207 kts | 98° |
| 2026-05-07 19:40 | 55.72292 | 48.84256 | 2967 ft | 201 kts | 99° |
| 2026-05-07 19:40 | 55.72129 | 48.86714 | 2601 ft | 200 kts | 98° |
| 2026-05-07 19:40 | 55.71966 | 48.89140 | 2267 ft | 196 kts | 98° |
| 2026-05-07 19:41 | 55.71809 | 48.91491 | 2084 ft | 187 kts | 98° |
| 2026-05-07 19:41 | 55.71656 | 48.93764 | 2019 ft | 184 kts | 99° |
| 2026-05-07 19:41 | 55.71507 | 48.96015 | 2021 ft | 184 kts | 98° |
| 2026-05-07 19:41 | 55.71356 | 48.98261 | 2027 ft | 183 kts | 98° |
| 2026-05-07 19:42 | 55.71098 | 49.00457 | 2024 ft | 181 kts | 114° |
| 2026-05-07 19:42 | 55.70469 | 49.02317 | 2026 ft | 174 kts | 125° |
| 2026-05-07 19:42 | 55.69793 | 49.04082 | 2028 ft | 172 kts | 126° |
| 2026-05-07 19:42 | 55.69123 | 49.05829 | 2032 ft | 171 kts | 126° |
| 2026-05-07 19:43 | 55.68454 | 49.07572 | 2034 ft | 171 kts | 126° |
| 2026-05-07 19:43 | 55.67801 | 49.09273 | 2026 ft | 164 kts | 126° |
| 2026-05-07 19:43 | 55.67167 | 49.10921 | 2029 ft | 161 kts | 126° |
| 2026-05-07 19:43 | 55.66536 | 49.12563 | 1967 ft | 161 kts | 125° |
| 2026-05-07 19:44 | 55.65930 | 49.14136 | 1807 ft | 147 kts | 125° |
| 2026-05-07 19:44 | 55.65374 | 49.15581 | 1636 ft | 139 kts | 126° |
| 2026-05-07 19:44 | 55.64842 | 49.16961 | 1474 ft | 134 kts | 125° |
| 2026-05-07 19:44 | 55.64321 | 49.18313 | 1298 ft | 133 kts | 125° |
| 2026-05-07 19:45 | 55.63801 | 49.19658 | 1122 ft | 133 kts | 124° |
| 2026-05-07 19:45 | 55.63280 | 49.21009 | 949 ft | 133 kts | 124° |
| 2026-05-07 19:45 | 55.62758 | 49.22360 | 770 ft | 133 kts | 123° |
| 2026-05-07 19:45 | 55.62230 | 49.23702 | 624 ft | 133 kts | 124° |
| 2026-05-07 19:46 | 55.61716 | 49.25062 | 478 ft | 133 kts | 123° |
| 2026-05-07 19:46 | 55.61213 | 49.26360 | 414 ft | 115 kts | 123° |
| 2026-05-07 19:46 | 55.60861 | 49.27269 | 410 ft | 65 kts | 124° |
| 2026-05-07 19:46 | 55.60657 | 49.27794 | 417 ft | 47 kts | 124° |
| 2026-05-07 19:47 | 55.60477 | 49.28260 | 412 ft | 45 kts | 124° |
| 2026-05-07 19:47 | 55.60387 | 49.28497 | 418 ft | 12 kts | 113° |
| 2026-05-07 19:47 | 55.60428 | 49.28621 | 418 ft | 16 kts | 34° |
| 2026-05-07 19:47 | 55.60466 | 49.28667 | 416 ft | 0 kts | 34° |
| 2026-05-07 19:48 | 55.60488 | 49.28694 | 416 ft | 10 kts | 35° |
| 2026-05-07 19:49 | 55.60547 | 49.28765 | 416 ft | 10 kts | 33° |
| 2026-05-07 19:49 | 55.60583 | 49.28845 | 411 ft | 8 kts | 87° |
| 2026-05-07 19:49 | 55.60577 | 49.28996 | 416 ft | 17 kts | 95° |
| 2026-05-07 19:49 | 55.60593 | 49.29144 | 410 ft | 17 kts | 56° |
| 2026-05-07 19:50 | 55.60683 | 49.29268 | 416 ft | 15 kts | 34° |
| 2026-05-07 19:50 | 55.60756 | 49.29357 | 416 ft | 12 kts | 34° |
| 2026-05-07 19:50 | 55.60813 | 49.29437 | 416 ft | 9 kts | 61° |
| 2026-05-07 19:50 | 55.60825 | 49.29518 | 409 ft | 6 kts | 56° |
| 2026-05-07 19:51 | 55.60841 | 49.29538 | 414 ft | 2 kts | 34° |
| 2026-05-07 19:51 | 55.60856 | 49.29556 | 413 ft | 2 kts | 34° |
| 2026-05-07 19:51 | 55.60863 | 49.29565 | 416 ft | 0 kts | 34° |